CES3279 ZSSS-ZGCJ
Flight info
| Callsign | CES3279 |
|---|---|
| Flight time | N/A |
| Altitude | 32100 |
| Route | ADBAS X180 IDBIN G204 TXN H26 P602 X263 P33 P374 H165 P392 P395 P424 AVDIP W226 BIRIR DALEP OLTOL OBLUV MILOP OLTUS IPMUG PEDMU IRSAS H165 P491 |
| Aircraft | B378/M-SDE1FGHILORVWXY/HB1 |
Departure
| Time | N/A |
|---|---|
| Airport | Shanghai Hongqiao International Airport (ZSSS) |
Arrival
| Time | 2026-05-01 08:33 |
|---|---|
| Airport | Huaihua Zhijiang Airport (ZGCJ) |
| Time | Latitude | Longitude | Altitude | Speed | Heading |
|---|---|---|---|---|---|
| 2026-05-01 07:23 | 29.31718 | 117.76771 | 32074 ft | 446 kts | 231° |
| 2026-05-01 07:24 | 29.25280 | 117.69044 | 32078 ft | 447 kts | 231° |
| 2026-05-01 07:24 | 29.20968 | 117.63897 | 32074 ft | 448 kts | 230° |
| 2026-05-01 07:25 | 29.16648 | 117.58756 | 32081 ft | 449 kts | 230° |
| 2026-05-01 07:25 | 29.12311 | 117.53601 | 32075 ft | 449 kts | 231° |
| 2026-05-01 07:26 | 29.08694 | 117.47890 | 32072 ft | 441 kts | 246° |
| 2026-05-01 07:26 | 29.06364 | 117.41455 | 32064 ft | 438 kts | 252° |
| 2026-05-01 07:27 | 29.04096 | 117.34982 | 32069 ft | 439 kts | 251° |
| 2026-05-01 07:27 | 29.01769 | 117.28537 | 32067 ft | 439 kts | 251° |
| 2026-05-01 07:28 | 28.99464 | 117.22083 | 32066 ft | 439 kts | 251° |
| 2026-05-01 07:28 | 28.97182 | 117.15614 | 32070 ft | 439 kts | 251° |
| 2026-05-01 07:29 | 28.94882 | 117.09103 | 32070 ft | 439 kts | 251° |
| 2026-05-01 07:29 | 28.92592 | 117.02644 | 32067 ft | 439 kts | 251° |
| 2026-05-01 07:30 | 28.90300 | 116.96192 | 32065 ft | 439 kts | 251° |
| 2026-05-01 07:30 | 28.88001 | 116.89737 | 32068 ft | 439 kts | 251° |
| 2026-05-01 07:31 | 28.85698 | 116.83282 | 32066 ft | 439 kts | 251° |
| 2026-05-01 07:32 | 28.79935 | 116.67174 | 32062 ft | 439 kts | 251° |
| 2026-05-01 07:33 | 28.76468 | 116.57520 | 32060 ft | 439 kts | 251° |
| 2026-05-01 07:33 | 28.72993 | 116.47867 | 32061 ft | 439 kts | 251° |
| 2026-05-01 07:34 | 28.69513 | 116.38226 | 32060 ft | 439 kts | 251° |
| 2026-05-01 07:35 | 28.67189 | 116.31802 | 32055 ft | 439 kts | 251° |
| 2026-05-01 07:35 | 28.64863 | 116.25382 | 32061 ft | 438 kts | 250° |
| 2026-05-01 07:36 | 28.62534 | 116.18967 | 32060 ft | 438 kts | 250° |
| 2026-05-01 07:36 | 28.60203 | 116.12555 | 32060 ft | 438 kts | 250° |
| 2026-05-01 07:37 | 28.56701 | 116.02943 | 32058 ft | 438 kts | 250° |
| 2026-05-01 07:37 | 28.54365 | 115.96543 | 32057 ft | 438 kts | 250° |
| 2026-05-01 07:38 | 28.52602 | 115.89958 | 32058 ft | 434 kts | 262° |
| 2026-05-01 07:39 | 28.51121 | 115.79755 | 32055 ft | 434 kts | 262° |
| 2026-05-01 07:39 | 28.49578 | 115.69609 | 32061 ft | 434 kts | 262° |
| 2026-05-01 07:40 | 28.48535 | 115.62848 | 32058 ft | 435 kts | 262° |
| 2026-05-01 07:40 | 28.47584 | 115.56059 | 32060 ft | 435 kts | 263° |
| 2026-05-01 07:41 | 28.46662 | 115.49268 | 32059 ft | 435 kts | 263° |
| 2026-05-01 07:42 | 28.45247 | 115.39077 | 32061 ft | 435 kts | 262° |
| 2026-05-01 07:42 | 28.44292 | 115.32283 | 32058 ft | 436 kts | 262° |
| 2026-05-01 07:43 | 28.43332 | 115.25482 | 32058 ft | 436 kts | 262° |
| 2026-05-01 07:43 | 28.41888 | 115.15289 | 32063 ft | 436 kts | 262° |
| 2026-05-01 07:44 | 28.39952 | 115.01697 | 32058 ft | 436 kts | 262° |
| 2026-05-01 07:45 | 28.38978 | 114.94902 | 32058 ft | 436 kts | 262° |
| 2026-05-01 07:45 | 28.38002 | 114.88109 | 32063 ft | 436 kts | 262° |
| 2026-05-01 07:46 | 28.37022 | 114.81320 | 32062 ft | 436 kts | 262° |
| 2026-05-01 07:47 | 28.35546 | 114.71138 | 32059 ft | 436 kts | 262° |
| 2026-05-01 07:47 | 28.34557 | 114.64344 | 32058 ft | 436 kts | 261° |
| 2026-05-01 07:48 | 28.33068 | 114.54157 | 32063 ft | 436 kts | 261° |
| 2026-05-01 07:48 | 28.32070 | 114.47362 | 32055 ft | 436 kts | 261° |
| 2026-05-01 07:49 | 28.30730 | 114.38276 | 32045 ft | 437 kts | 261° |
| 2026-05-01 07:50 | 28.29844 | 114.31468 | 32050 ft | 436 kts | 263° |
| 2026-05-01 07:50 | 28.28708 | 114.21211 | 32046 ft | 437 kts | 263° |
| 2026-05-01 07:51 | 28.27928 | 114.14383 | 32051 ft | 437 kts | 263° |
| 2026-05-01 07:52 | 28.26731 | 114.04150 | 32038 ft | 436 kts | 263° |
| 2026-05-01 07:52 | 28.25929 | 113.97345 | 32042 ft | 436 kts | 263° |
| 2026-05-01 07:53 | 28.24720 | 113.87132 | 32035 ft | 435 kts | 263° |
| 2026-05-01 07:53 | 28.23911 | 113.80333 | 32039 ft | 435 kts | 263° |
| 2026-05-01 07:55 | 28.21952 | 113.64044 | 32022 ft | 435 kts | 262° |
| 2026-05-01 07:56 | 28.19883 | 113.47084 | 32011 ft | 435 kts | 262° |
| 2026-05-01 07:57 | 28.18636 | 113.36903 | 32010 ft | 435 kts | 262° |
| 2026-05-01 07:58 | 28.16965 | 113.23322 | 32009 ft | 435 kts | 262° |
| 2026-05-01 07:59 | 28.15276 | 113.09706 | 32013 ft | 435 kts | 262° |
| 2026-05-01 08:00 | 28.13789 | 112.89336 | 32002 ft | 434 kts | 273° |
| 2026-05-01 08:01 | 28.14651 | 112.75711 | 31994 ft | 433 kts | 273° |
| 2026-05-01 08:02 | 28.15240 | 112.65487 | 31991 ft | 433 kts | 273° |
| 2026-05-01 08:03 | 28.15816 | 112.55267 | 31988 ft | 433 kts | 273° |
| 2026-05-01 08:03 | 28.16385 | 112.45055 | 31984 ft | 433 kts | 273° |
| 2026-05-01 08:04 | 28.17132 | 112.31461 | 31978 ft | 431 kts | 273° |
| 2026-05-01 08:05 | 28.17271 | 112.21305 | 31988 ft | 430 kts | 263° |
| 2026-05-01 08:06 | 28.14909 | 112.11497 | 31978 ft | 431 kts | 254° |
| 2026-05-01 08:07 | 28.11465 | 111.98492 | 31968 ft | 431 kts | 254° |
| 2026-05-01 08:08 | 28.08887 | 111.88722 | 31970 ft | 432 kts | 254° |
| 2026-05-01 08:09 | 28.05418 | 111.75641 | 31967 ft | 433 kts | 254° |
| 2026-05-01 08:09 | 28.03684 | 111.69121 | 31975 ft | 433 kts | 254° |
| 2026-05-01 08:10 | 28.00199 | 111.56060 | 31976 ft | 434 kts | 253° |
| 2026-05-01 08:11 | 27.98483 | 111.49478 | 31461 ft | 441 kts | 255° |
| 2026-05-01 08:11 | 27.96895 | 111.42796 | 30066 ft | 441 kts | 255° |
| 2026-05-01 08:12 | 27.95321 | 111.36106 | 28649 ft | 436 kts | 255° |
| 2026-05-01 08:12 | 27.94538 | 111.32808 | 28043 ft | 431 kts | 255° |
| 2026-05-01 08:12 | 27.92987 | 111.26331 | 26897 ft | 422 kts | 254° |
| 2026-05-01 08:13 | 27.92220 | 111.23150 | 26344 ft | 418 kts | 254° |
| 2026-05-01 08:13 | 27.91458 | 111.19992 | 25793 ft | 414 kts | 254° |
| 2026-05-01 08:13 | 27.89950 | 111.13752 | 24666 ft | 408 kts | 254° |
| 2026-05-01 08:14 | 27.89202 | 111.10664 | 24101 ft | 406 kts | 254° |
| 2026-05-01 08:14 | 27.88458 | 111.07590 | 23547 ft | 404 kts | 254° |
| 2026-05-01 08:14 | 27.87717 | 111.04535 | 22911 ft | 402 kts | 254° |
| 2026-05-01 08:14 | 27.86982 | 111.01506 | 22344 ft | 398 kts | 254° |
| 2026-05-01 08:15 | 27.86253 | 110.98504 | 21777 ft | 394 kts | 254° |
| 2026-05-01 08:15 | 27.84814 | 110.92593 | 20690 ft | 387 kts | 254° |
| 2026-05-01 08:15 | 27.84103 | 110.89678 | 20191 ft | 383 kts | 254° |
| 2026-05-01 08:16 | 27.83398 | 110.86786 | 19673 ft | 381 kts | 254° |
| 2026-05-01 08:16 | 27.82694 | 110.83907 | 19143 ft | 379 kts | 254° |
| 2026-05-01 08:16 | 27.81996 | 110.81049 | 18609 ft | 377 kts | 254° |
| 2026-05-01 08:16 | 27.81299 | 110.78202 | 18078 ft | 375 kts | 255° |
| 2026-05-01 08:17 | 27.80597 | 110.75334 | 17506 ft | 372 kts | 254° |
| 2026-05-01 08:17 | 27.79920 | 110.72570 | 16964 ft | 369 kts | 254° |
| 2026-05-01 08:17 | 27.79228 | 110.69749 | 16440 ft | 366 kts | 254° |
| 2026-05-01 08:17 | 27.78553 | 110.66998 | 15931 ft | 362 kts | 254° |
| 2026-05-01 08:18 | 27.77881 | 110.64267 | 15423 ft | 358 kts | 253° |
| 2026-05-01 08:18 | 27.76560 | 110.58897 | 14435 ft | 352 kts | 253° |
| 2026-05-01 08:19 | 27.75261 | 110.53624 | 13462 ft | 345 kts | 253° |
| 2026-05-01 08:19 | 27.74618 | 110.51022 | 12945 ft | 342 kts | 253° |
| 2026-05-01 08:19 | 27.73981 | 110.48442 | 12423 ft | 339 kts | 253° |
| 2026-05-01 08:19 | 27.73630 | 110.45822 | 11940 ft | 339 kts | 268° |
| 2026-05-01 08:20 | 27.73844 | 110.43172 | 11457 ft | 339 kts | 274° |
| 2026-05-01 08:20 | 27.74168 | 110.40550 | 10999 ft | 336 kts | 275° |
| 2026-05-01 08:20 | 27.74501 | 110.37988 | 10900 ft | 322 kts | 275° |
| 2026-05-01 08:20 | 27.74818 | 110.35519 | 10727 ft | 312 kts | 275° |
| 2026-05-01 08:21 | 27.75116 | 110.33141 | 10607 ft | 301 kts | 274° |
| 2026-05-01 08:21 | 27.75396 | 110.30841 | 10467 ft | 291 kts | 274° |
| 2026-05-01 08:21 | 27.75662 | 110.28623 | 10372 ft | 281 kts | 274° |
| 2026-05-01 08:21 | 27.75916 | 110.26480 | 10243 ft | 271 kts | 274° |
| 2026-05-01 08:22 | 27.76163 | 110.24401 | 10140 ft | 262 kts | 273° |
| 2026-05-01 08:22 | 27.76400 | 110.22390 | 10027 ft | 255 kts | 273° |
| 2026-05-01 08:22 | 27.76630 | 110.20419 | 9791 ft | 253 kts | 273° |
| 2026-05-01 08:22 | 27.76859 | 110.18452 | 9524 ft | 252 kts | 273° |
| 2026-05-01 08:23 | 27.77090 | 110.16486 | 9228 ft | 252 kts | 273° |
| 2026-05-01 08:23 | 27.77317 | 110.14531 | 8954 ft | 251 kts | 273° |
| 2026-05-01 08:23 | 27.77468 | 110.13238 | 8760 ft | 251 kts | 273° |
| 2026-05-01 08:23 | 27.77694 | 110.11290 | 8480 ft | 250 kts | 272° |
| 2026-05-01 08:24 | 27.77921 | 110.09346 | 8190 ft | 250 kts | 272° |
| 2026-05-01 08:24 | 27.77892 | 110.07428 | 7963 ft | 243 kts | 252° |
| 2026-05-01 08:24 | 27.77186 | 110.05692 | 7640 ft | 248 kts | 231° |
| 2026-05-01 08:24 | 27.76068 | 110.04195 | 7373 ft | 251 kts | 227° |
| 2026-05-01 08:25 | 27.74921 | 110.02717 | 7078 ft | 249 kts | 227° |
| 2026-05-01 08:25 | 27.73788 | 110.01265 | 6793 ft | 243 kts | 227° |
| 2026-05-01 08:25 | 27.72671 | 109.99831 | 6527 ft | 243 kts | 227° |
| 2026-05-01 08:25 | 27.71558 | 109.98396 | 6230 ft | 243 kts | 227° |
| 2026-05-01 08:26 | 27.70447 | 109.96963 | 5925 ft | 242 kts | 227° |
| 2026-05-01 08:26 | 27.69340 | 109.95533 | 5654 ft | 241 kts | 227° |
| 2026-05-01 08:26 | 27.68239 | 109.94109 | 5370 ft | 241 kts | 226° |
| 2026-05-01 08:26 | 27.67135 | 109.92684 | 5093 ft | 241 kts | 226° |
| 2026-05-01 08:27 | 27.66040 | 109.91269 | 4856 ft | 236 kts | 226° |
| 2026-05-01 08:27 | 27.64968 | 109.89878 | 4560 ft | 230 kts | 226° |
| 2026-05-01 08:27 | 27.63939 | 109.88544 | 4257 ft | 221 kts | 226° |
| 2026-05-01 08:27 | 27.62963 | 109.87281 | 4000 ft | 206 kts | 226° |
| 2026-05-01 08:28 | 27.62066 | 109.86114 | 3764 ft | 189 kts | 225° |
| 2026-05-01 08:28 | 27.61229 | 109.85036 | 3607 ft | 179 kts | 225° |
| 2026-05-01 08:28 | 27.60430 | 109.84024 | 3397 ft | 162 kts | 219° |
| 2026-05-01 08:28 | 27.59543 | 109.83267 | 3369 ft | 160 kts | 214° |
| 2026-05-01 08:29 | 27.58692 | 109.82545 | 3294 ft | 147 kts | 214° |
| 2026-05-01 08:29 | 27.57879 | 109.81857 | 3252 ft | 146 kts | 214° |
| 2026-05-01 08:29 | 27.57058 | 109.81165 | 3152 ft | 147 kts | 213° |
| 2026-05-01 08:29 | 27.56237 | 109.80476 | 3113 ft | 148 kts | 213° |
| 2026-05-01 08:30 | 27.55422 | 109.79790 | 3086 ft | 148 kts | 214° |
| 2026-05-01 08:30 | 27.54582 | 109.79084 | 3003 ft | 148 kts | 215° |
| 2026-05-01 08:30 | 27.53757 | 109.78387 | 2846 ft | 147 kts | 215° |
| 2026-05-01 08:30 | 27.52946 | 109.77706 | 2649 ft | 144 kts | 215° |
| 2026-05-01 08:31 | 27.52135 | 109.77024 | 2520 ft | 149 kts | 214° |
| 2026-05-01 08:31 | 27.51310 | 109.76330 | 2321 ft | 146 kts | 214° |
| 2026-05-01 08:31 | 27.50500 | 109.75648 | 2132 ft | 145 kts | 213° |
| 2026-05-01 08:31 | 27.49662 | 109.74949 | 1940 ft | 155 kts | 214° |
| 2026-05-01 08:32 | 27.48785 | 109.74212 | 1706 ft | 155 kts | 213° |
| 2026-05-01 08:32 | 27.47913 | 109.73486 | 1483 ft | 154 kts | 214° |
| 2026-05-01 08:32 | 27.47081 | 109.72785 | 1242 ft | 149 kts | 214° |
| 2026-05-01 08:32 | 27.46253 | 109.72071 | 1052 ft | 147 kts | 213° |
| 2026-05-01 08:33 | 27.45436 | 109.71391 | 848 ft | 144 kts | 214° |
| 2026-05-01 08:33 | 27.44722 | 109.70798 | 846 ft | 99 kts | 217° |
| 2026-05-01 08:33 | 27.44344 | 109.70482 | 852 ft | 29 kts | 216° |
| 2026-05-01 08:33 | 27.44296 | 109.70442 | 840 ft | 8 kts | 216° |
| 2026-05-01 08:34 | 27.44252 | 109.70405 | 854 ft | 8 kts | 216° |
| 2026-05-01 08:34 | 27.44203 | 109.70359 | 851 ft | 10 kts | 233° |
| 2026-05-01 08:34 | 27.44225 | 109.70283 | 847 ft | 12 kts | 307° |
| 2026-05-01 08:34 | 27.44287 | 109.70203 | 845 ft | 15 kts | 338° |
| 2026-05-01 08:35 | 27.44375 | 109.70252 | 849 ft | 14 kts | 36° |
| 2026-05-01 08:35 | 27.44435 | 109.70273 | 847 ft | 9 kts | 321° |
| 2026-05-01 08:35 | 27.44468 | 109.70218 | 853 ft | 6 kts | 307° |
| 2026-05-01 08:35 | 27.44472 | 109.70212 | 847 ft | 0 kts | 307° |